Time;durP1;ratioP1;P1;durP2;ratioP2;P2;SDS_P1;SDS_P2;PMS_P1;PMS_P2;Temp;Humidity;BMP_temperature;BMP_pressure;BME280_temperature;BME280_humidity;BME280_pressure;Samples;Min_cycle;Max_cycle;Signal;HPM_P1;HPM_P2
2023/01/02 00:00:33;;;;;;;18.57;11.28;;;;;;;11.91;74.46;101147.54;1688893;82;26398;-79
2023/01/02 00:03:01;;;;;;;22.35;11.57;;;;;;;11.90;74.47;101149.07;1742633;81;25848;-81
2023/01/02 00:05:28;;;;;;;26.57;12.25;;;;;;;11.89;74.52;101152.26;1730285;81;26224;-80
2023/01/02 00:07:54;;;;;;;21.75;11.22;;;;;;;11.89;74.51;101153.59;1720962;81;25805;-80
2023/01/02 00:10:21;;;;;;;20.05;11.40;;;;;;;11.88;74.45;101161.84;1704026;82;27631;-79
2023/01/02 00:12:47;;;;;;;20.30;11.33;;;;;;;11.84;74.52;101166.75;1734185;81;26464;-80
2023/01/02 00:15:13;;;;;;;21.80;11.63;;;;;;;11.84;74.63;101161.38;1724215;81;26335;-81
2023/01/02 00:17:40;;;;;;;20.65;11.12;;;;;;;11.86;74.61;101162.03;1728681;81;26474;-80
2023/01/02 00:20:07;;;;;;;22.75;12.05;;;;;;;11.85;74.54;101157.67;1669657;83;26247;-80
2023/01/02 00:22:35;;;;;;;21.52;12.20;;;;;;;11.83;74.52;101162.38;1715282;81;28331;-78
2023/01/02 00:25:02;;;;;;;22.10;11.95;;;;;;;11.81;74.63;101162.23;1721153;81;25836;-78
2023/01/02 00:27:29;;;;;;;22.05;11.35;;;;;;;11.84;74.75;101165.91;1719367;81;25855;-78
2023/01/02 00:29:55;;;;;;;19.73;11.10;;;;;;;11.83;74.69;101166.41;1674689;84;25869;-78
2023/01/02 00:32:22;;;;;;;19.80;12.28;;;;;;;11.82;74.78;101160.73;1716119;81;26483;-78
2023/01/02 00:34:49;;;;;;;18.77;11.33;;;;;;;11.83;74.88;101167.75;1716700;81;27451;-78
2023/01/02 00:37:15;;;;;;;19.90;11.33;;;;;;;11.85;74.86;101165.72;1717753;81;25892;-78
2023/01/02 00:39:41;;;;;;;22.80;12.45;;;;;;;11.86;74.91;101167.41;1699816;82;25876;-77
2023/01/02 00:42:07;;;;;;;22.42;11.40;;;;;;;11.87;74.90;101165.03;1691836;82;25511;-78
2023/01/02 00:44:34;;;;;;;22.70;11.30;;;;;;;11.90;74.97;101175.42;1722511;81;26190;-79
2023/01/02 00:47:00;;;;;;;18.98;11.35;;;;;;;11.90;74.97;101175.92;1729701;81;27420;-78
2023/01/02 00:49:26;;;;;;;21.87;11.35;;;;;;;11.91;74.99;101178.95;1733749;81;26208;-78
2023/01/02 00:51:52;;;;;;;19.85;11.45;;;;;;;11.92;75.01;101181.44;1731185;82;26493;-78
2023/01/02 00:54:19;;;;;;;20.10;12.15;;;;;;;11.91;74.95;101177.06;1731530;80;25896;-77
2023/01/02 00:56:45;;;;;;;22.67;12.30;;;;;;;11.89;75.01;101177.76;1704751;82;25614;-78
2023/01/02 00:59:11;;;;;;;21.20;12.45;;;;;;;11.89;75.06;101173.73;1682866;83;27453;-78
2023/01/02 01:01:38;;;;;;;18.98;11.70;;;;;;;11.91;75.09;101173.58;1683298;84;25875;-78
2023/01/02 01:04:04;;;;;;;20.43;11.40;;;;;;;11.91;75.12;101171.70;1671323;84;25838;-79
2023/01/02 01:06:32;;;;;;;20.32;11.73;;;;;;;11.90;75.14;101171.39;1671413;83;25827;-77
2023/01/02 01:08:59;;;;;;;21.37;12.23;;;;;;;11.91;75.17;101170.89;1675784;84;25953;-79
2023/01/02 01:11:25;;;;;;;20.45;12.05;;;;;;;11.88;75.14;101177.45;1681567;84;27482;-78
2023/01/02 01:13:52;;;;;;;20.80;11.88;;;;;;;11.85;75.14;101169.75;1664600;84;26658;-78
2023/01/02 01:16:19;;;;;;;23.22;12.37;;;;;;;11.86;75.32;101173.27;1659071;83;25846;-78
2023/01/02 01:18:47;;;;;;;19.95;11.85;;;;;;;11.86;75.28;101177.30;1670715;84;25961;-78
2023/01/02 01:21:19;;;;;;;24.65;13.00;;;;;;;11.87;75.33;101173.61;1674261;84;25794;-77
2023/01/02 01:23:51;;;;;;;21.73;12.30;;;;;;;11.83;75.31;101160.20;1682939;84;28218;-78
2023/01/02 01:26:19;;;;;;;22.02;12.45;;;;;;;11.80;75.44;101152.53;1658251;84;25866;-78
2023/01/02 01:28:45;;;;;;;24.37;12.93;;;;;;;11.80;75.57;101152.53;1680798;83;25922;-79
2023/01/02 01:34:42;;;;;;;25.55;13.20;;;;;;;11.81;75.68;101145.63;1691917;81;26831;31
2023/01/02 01:37:08;;;;;;;20.65;11.85;;;;;;;11.79;75.71;101143.63;1745405;81;27909;-81
2023/01/02 01:39:35;;;;;;;23.27;13.72;;;;;;;11.78;75.83;101133.93;1752643;81;25788;-81
2023/01/02 01:42:01;;;;;;;22.75;13.30;;;;;;;11.80;75.87;101137.77;1743487;81;25676;-81
2023/01/02 01:44:53;;;;;;;26.15;13.35;;;;;;;11.79;75.85;101126.69;1740144;81;25748;-80
2023/01/02 01:50:33;;;;;;;23.27;12.90;;;;;;;11.77;75.78;101136.27;1760416;78;26974;-78
2023/01/02 02:40:03;;;;;;;21.65;12.70;;;;;;;11.42;76.57;101129.64;1783564;79;25850;-78
2023/01/02 02:43:14;;;;;;;21.45;12.37;;;;;;;11.42;76.57;101133.67;1778917;79;26016;-78
2023/01/02 02:46:01;;;;;;;23.83;13.00;;;;;;;11.43;76.59;101132.67;1785268;79;25823;-79
2023/01/02 02:48:57;;;;;;;22.15;13.22;;;;;;;11.43;76.60;101135.85;1780320;79;26239;-79
2023/01/02 02:51:37;;;;;;;25.97;12.85;;;;;;;11.43;76.65;101119.26;1777924;79;25981;-78
2023/01/02 02:54:12;;;;;;;24.05;13.22;;;;;;;11.44;76.67;101109.37;1779572;79;27605;-79
2023/01/02 02:56:41;;;;;;;24.10;11.90;;;;;;;11.44;76.71;101112.86;1770545;79;25914;-79
2023/01/02 02:59:08;;;;;;;21.42;12.05;;;;;;;11.46;76.77;101120.22;1776213;79;25818;-78
2023/01/02 03:01:35;;;;;;;20.77;11.70;;;;;;;11.49;76.71;101121.72;1757170;79;25779;-78
2023/01/02 03:04:02;;;;;;;24.65;12.75;;;;;;;11.49;76.63;101126.58;1781293;79;25783;-78
2023/01/02 03:06:55;;;;;;;21.30;12.05;;;;;;;11.52;76.68;101116.00;1773604;79;27430;-77
2023/01/02 03:09:51;;;;;;;21.17;11.83;;;;;;;11.52;76.55;101116.00;1766119;79;25899;-79
2023/01/02 03:12:35;;;;;;;26.33;12.75;;;;;;;11.52;76.56;101121.37;1775854;79;25797;-78
2023/01/02 03:15:25;;;;;;;20.97;13.15;;;;;;;11.52;76.60;101125.39;1791009;78;26064;-78
2023/01/02 03:18:09;;;;;;;23.80;13.13;;;;;;;11.52;76.60;101124.05;1788598;79;25865;-77
2023/01/02 03:20:46;;;;;;;21.23;11.90;;;;;;;11.52;76.60;101120.03;1777820;78;28214;-78
2023/01/02 03:23:20;;;;;;;21.27;11.50;;;;;;;11.51;76.59;101111.14;1791933;79;25758;-79
2023/01/02 03:25:47;;;;;;;22.55;13.45;;;;;;;11.52;76.62;101113.32;1786676;79;25858;-77
2023/01/02 03:28:17;;;;;;;20.08;11.97;;;;;;;11.52;76.62;101120.03;1782077;79;26285;-78
2023/01/02 03:30:47;;;;;;;18.65;12.18;;;;;;;11.51;76.56;101133.94;1775916;79;26276;-79
2023/01/02 03:33:17;;;;;;;24.20;12.75;;;;;;;11.51;76.59;101143.83;1778293;79;27456;-77
2023/01/02 03:35:49;;;;;;;18.98;11.55;;;;;;;11.53;76.61;101145.83;1785044;79;25928;-77
2023/01/02 03:38:23;;;;;;;20.75;11.68;;;;;;;11.54;76.52;101134.09;1786648;79;25746;-78
2023/01/02 03:40:55;;;;;;;23.87;12.28;;;;;;;11.54;76.50;101134.09;1784720;79;26270;-78
2023/01/02 03:43:28;;;;;;;22.32;12.30;;;;;;;11.53;76.47;101135.09;1780406;78;26070;-78
2023/01/02 03:46:16;;;;;;;23.67;12.18;;;;;;;11.54;76.48;101138.12;1749242;78;27463;-79
2023/01/02 03:49:07;;;;;;;20.12;11.45;;;;;;;11.51;76.50;101131.26;1734562;81;25824;-79
2023/01/02 03:51:35;;;;;;;22.60;12.55;;;;;;;11.51;76.50;101139.81;1740605;80;25789;-79
2023/01/02 03:54:03;;;;;;;24.10;13.05;;;;;;;11.49;76.50;101136.47;1749859;80;25472;-78
2023/01/02 03:56:58;;;;;;;25.37;12.15;;;;;;;11.47;76.46;101133.98;1758936;80;25306;-79
2023/01/02 03:59:42;;;;;;;20.17;11.65;;;;;;;11.45;76.47;101138.69;1753641;79;27471;-78
2023/01/02 04:02:32;;;;;;;19.80;11.60;;;;;;;11.43;76.52;101144.74;1754688;81;25946;-78
2023/01/02 04:05:07;;;;;;;22.83;13.10;;;;;;;11.42;76.58;101144.40;1752232;80;26449;-78
2023/01/02 04:08:07;;;;;;;21.15;13.35;;;;;;;11.42;76.58;101142.22;1731950;80;43542;-78
2023/01/02 04:10:36;;;;;;;18.80;12.03;;;;;;;11.57;76.46;101138.58;1740726;80;25946;-78
2023/01/02 04:13:25;;;;;;;19.57;11.53;;;;;;;11.55;76.51;101132.56;1742542;80;26901;-78
2023/01/02 04:15:52;;;;;;;19.48;11.85;;;;;;;11.53;76.65;101135.09;1742014;80;25740;-78
2023/01/02 04:18:32;;;;;;;20.97;11.25;;;;;;;11.49;76.86;101135.97;1743044;80;25868;-80
2023/01/02 04:21:07;;;;;;;22.90;12.85;;;;;;;11.46;77.05;101128.27;1740329;80;26529;-78
2023/01/02 04:23:38;;;;;;;25.25;15.53;;;;;;;11.45;77.34;101121.25;1754117;80;25839;-79
2023/01/02 04:26:12;;;;;;;22.50;12.78;;;;;;;11.43;77.59;101122.44;1740372;80;28327;-78
2023/01/02 04:28:39;;;;;;;23.07;12.28;;;;;;;11.38;77.75;101121.63;1731732;81;26574;-79
2023/01/02 04:31:19;;;;;;;18.40;10.98;;;;;;;11.33;77.93;101117.30;1742283;81;25831;-79
2023/01/02 04:33:53;;;;;;;20.15;12.65;;;;;;;11.31;78.08;101107.80;1745151;80;26418;-80
2023/01/02 04:36:21;;;;;;;18.87;12.47;;;;;;;11.29;78.29;101108.48;1718928;80;25837;-78
2023/01/02 04:38:48;;;;;;;20.32;12.15;;;;;;;11.26;78.39;101100.28;1745155;80;27570;-79
2023/01/02 04:41:28;;;;;;;16.67;11.38;;;;;;;11.26;78.70;101098.94;1742455;80;25876;-81
2023/01/02 04:43:54;;;;;;;24.55;12.47;;;;;;;11.26;78.86;101086.87;1741121;80;25858;-78
2023/01/02 04:46:21;;;;;;;24.27;12.15;;;;;;;11.26;78.94;101094.08;1748375;80;25791;-79
2023/01/02 04:48:47;;;;;;;20.32;12.45;;;;;;;11.27;79.07;101103.80;1748847;80;26206;-79
2023/01/02 04:51:14;;;;;;;25.30;13.58;;;;;;;11.25;79.19;101101.28;1783931;78;28192;-79
2023/01/02 04:53:40;;;;;;;22.20;12.88;;;;;;;11.25;79.40;101100.44;1789222;78;25902;-78
2023/01/02 04:56:07;;;;;;;19.57;12.63;;;;;;;11.21;79.54;101094.61;1784467;78;26356;-81
2023/01/02 04:58:33;;;;;;;24.57;13.15;;;;;;;11.19;79.68;101089.09;1783207;78;26526;-78
2023/01/02 05:01:00;;;;;;;18.57;12.35;;;;;;;11.14;79.88;101078.89;1783886;78;25903;-78
2023/01/02 05:03:26;;;;;;;19.65;11.68;;;;;;;11.10;79.97;101074.09;1785303;78;28250;-78
2023/01/02 05:06:00;;;;;;;18.87;10.58;;;;;;;11.08;80.08;101054.14;1801128;77;25721;-80
2023/01/02 05:08:28;;;;;;;18.75;10.55;;;;;;;11.08;80.03;101053.30;1720058;81;25836;-78
2023/01/02 05:10:55;;;;;;;15.88;11.03;;;;;;;11.04;80.02;101056.86;1723369;81;25866;-78
2023/01/02 05:13:21;;;;;;;18.95;10.20;;;;;;;11.00;80.12;101054.21;1739187;80;26684;-78
2023/01/02 05:15:55;;;;;;;16.80;11.55;;;;;;;10.98;80.20;101049.53;1735489;81;28521;-79
2023/01/02 05:18:22;;;;;;;25.65;11.75;;;;;;;10.97;80.22;101051.88;1735673;80;26383;-78
2023/01/02 05:20:48;;;;;;;20.37;11.20;;;;;;;10.94;80.28;101053.59;1744446;80;25905;-77
2023/01/02 05:26:00;;;;;;;17.37;10.85;;;;;;;10.90;80.32;101051.44;1745301;80;25918;-78
2023/01/02 05:28:26;;;;;;;33.85;18.20;;;;;;;10.90;80.29;101046.92;1745882;80;27426;-78
2023/01/02 05:30:52;;;;;;;32.67;16.60;;;;;;;10.89;80.29;101039.88;1744432;80;26508;-77
2023/01/02 05:33:18;;;;;;;22.42;13.50;;;;;;;10.89;80.34;101043.90;1738972;81;26649;-78
2023/01/02 05:35:45;;;;;;;20.48;11.75;;;;;;;10.88;80.26;101042.74;1739509;80;26258;-80
2023/01/02 05:38:11;;;;;;;17.67;11.53;;;;;;;10.86;80.16;101036.23;1739213;81;25974;-77
2023/01/02 05:40:37;;;;;;;20.00;13.72;;;;;;;10.86;80.16;101039.72;1742354;80;27428;-78
2023/01/02 05:43:04;;;;;;;22.55;13.98;;;;;;;10.85;80.10;101031.87;1744556;81;26158;-80
2023/01/02 05:45:30;;;;;;;20.60;11.68;;;;;;;10.82;80.07;101023.67;1744312;80;25800;-79
2023/01/02 05:47:56;;;;;;;20.90;11.48;;;;;;;10.79;79.96;101018.69;1739568;81;25836;-80
2023/01/02 05:50:23;;;;;;;22.00;12.60;;;;;;;10.76;79.92;101014.17;1743935;81;26048;-78
2023/01/02 05:52:49;;;;;;;20.20;12.20;;;;;;;10.71;79.83;101020.05;1744343;80;27609;-78
2023/01/02 05:55:15;;;;;;;21.80;11.55;;;;;;;10.69;79.93;101021.27;1745210;81;26000;-77
2023/01/02 05:57:41;;;;;;;34.08;18.92;;;;;;;10.66;79.77;101017.09;1745812;81;25879;-79
2023/01/02 06:00:09;;;;;;;57.70;30.37;;;;;;;10.62;79.72;101013.11;1745365;80;25759;-77
2023/01/02 06:02:37;;;;;;;51.73;30.02;;;;;;;10.59;79.77;101011.27;1752696;80;26085;-77
2023/01/02 06:05:04;;;;;;;47.38;30.72;;;;;;;10.55;79.68;101013.48;1749404;81;27627;-78
2023/01/02 06:07:31;;;;;;;53.95;34.38;;;;;;;10.52;79.59;101008.98;1751791;80;25848;-77
2023/01/02 06:09:58;;;;;;;71.90;45.45;;;;;;;10.48;79.65;101011.16;1748302;80;26094;-78
2023/01/02 06:12:24;;;;;;;93.55;55.70;;;;;;;10.46;79.66;101011.84;1742005;82;25889;-78
2023/01/02 06:14:50;;;;;;;107.83;63.28;;;;;;;10.43;79.60;101010.88;1739593;81;26024;-79
2023/01/02 06:17:16;;;;;;;123.35;72.20;;;;;;;10.41;79.58;101014.23;1741296;80;26875;-78
2023/01/02 06:19:43;;;;;;;115.05;70.60;;;;;;;10.39;79.52;101018.91;1715032;81;25827;-78
2023/01/02 06:22:09;;;;;;;95.57;56.00;;;;;;;10.36;79.46;101017.94;1716553;81;26385;-78
2023/01/02 06:24:35;;;;;;;55.30;33.85;;;;;;;10.35;79.56;101014.91;1741285;81;26225;-78
2023/01/02 06:27:01;;;;;;;51.35;30.43;;;;;;;10.36;79.65;101012.58;1740082;80;25827;-80
2023/01/02 06:29:28;;;;;;;48.08;28.50;;;;;;;10.34;79.62;101013.26;1742865;81;27633;-78
2023/01/02 06:31:54;;;;;;;36.35;21.65;;;;;;;10.33;79.73;101014.78;1747991;81;25778;-78
2023/01/02 06:34:21;;;;;;;29.60;18.05;;;;;;;10.32;79.73;101011.76;1743616;80;26434;-78
2023/01/02 06:36:47;;;;;;;28.67;17.40;;;;;;;10.31;79.78;101024.84;1741323;80;25790;-78
2023/01/02 06:39:13;;;;;;;25.88;13.60;;;;;;;10.28;79.69;101023.34;1741875;79;26040;-77
2023/01/02 06:41:39;;;;;;;25.65;12.68;;;;;;;10.28;79.70;101017.14;1744129;80;27440;-79
2023/01/02 06:44:06;;;;;;;25.30;12.68;;;;;;;10.27;79.72;101010.94;1746118;80;25820;-78
2023/01/02 06:46:32;;;;;;;65.70;37.15;;;;;;;10.25;79.74;101008.95;1718954;81;25835;-78
2023/01/02 06:48:58;;;;;;;97.15;53.78;;;;;;;10.22;79.81;101005.80;1742587;81;26525;-78
2023/01/02 06:51:24;;;;;;;99.37;56.85;;;;;;;10.20;79.91;101004.61;1741808;81;25951;-77
2023/01/02 06:53:51;;;;;;;101.12;56.65;;;;;;;10.19;79.96;100994.92;1744166;80;27602;-78
2023/01/02 06:56:19;;;;;;;77.78;45.78;;;;;;;10.17;80.04;100988.91;1739003;80;25980;-77
2023/01/02 06:58:46;;;;;;;54.98;34.27;;;;;;;10.17;80.16;100986.23;1736956;81;25827;-78
2023/01/02 07:01:19;;;;;;;25.60;17.15;;;;;;;10.17;80.28;100982.22;1742245;80;26266;-78
2023/01/02 07:03:46;;;;;;;28.45;16.73;;;;;;;10.16;80.28;100973.84;1742984;80;25828;-78
2023/01/02 07:06:18;;;;;;;23.20;15.60;;;;;;;10.15;80.40;100981.56;1742647;80;27456;-78
2023/01/02 07:08:46;;;;;;;26.02;15.08;;;;;;;10.13;80.45;100977.39;1737210;80;25903;-78
2023/01/02 07:11:19;;;;;;;21.17;13.80;;;;;;;10.13;80.59;100978.72;1739660;80;26402;-79
2023/01/02 07:13:47;;;;;;;22.67;12.98;;;;;;;10.11;80.65;100974.05;1736300;80;25849;-78
2023/01/02 07:16:16;;;;;;;15.68;11.18;;;;;;;10.08;80.67;100956.46;1714791;81;25485;-79
2023/01/02 07:18:43;;;;;;;19.87;11.18;;;;;;;10.07;80.81;100959.63;1739926;82;27463;-78
2023/01/02 07:21:11;;;;;;;20.85;12.37;;;;;;;10.07;80.95;100956.15;1739217;81;25800;-78
2023/01/02 07:23:38;;;;;;;16.00;10.10;;;;;;;10.06;81.10;100958.48;1734093;81;25767;-78
2023/01/02 07:26:06;;;;;;;14.58;10.03;;;;;;;10.03;81.22;100952.97;1724933;81;25809;-80
2023/01/02 07:28:33;;;;;;;11.90;8.23;;;;;;;10.03;81.32;100952.97;1720446;82;25921;-78
2023/01/02 07:31:04;;;;;;;17.02;9.60;;;;;;;10.01;81.47;100952.31;1742607;81;28325;-78
2023/01/02 07:33:32;;;;;;;16.97;8.78;;;;;;;9.99;81.55;100956.16;1745900;80;25891;-79
2023/01/02 07:36:12;;;;;;;15.72;9.28;;;;;;;9.97;81.76;100959.52;1748163;80;25773;-78
2023/01/02 07:38:38;;;;;;;13.40;8.80;;;;;;;9.96;81.92;100962.72;1742363;80;25797;-78
2023/01/02 07:41:17;;;;;;;14.53;8.48;;;;;;;9.94;82.11;100959.88;1735921;81;25816;-77
2023/01/02 07:43:45;;;;;;;12.45;8.45;;;;;;;9.93;82.27;100960.38;1712033;83;27446;-79
2023/01/02 07:46:13;;;;;;;15.20;9.05;;;;;;;9.94;82.43;100956.68;1729620;80;25799;-78
2023/01/02 07:48:40;;;;;;;16.20;9.15;;;;;;;9.97;82.64;100958.18;1738308;80;26435;-77
2023/01/02 07:51:07;;;;;;;14.70;8.65;;;;;;;9.98;82.72;100958.52;1733096;81;25911;-78
2023/01/02 07:53:34;;;;;;;12.58;8.38;;;;;;;9.99;82.88;100959.68;1737277;80;26472;-79
2023/01/02 07:56:02;;;;;;;12.88;8.78;;;;;;;10.02;82.93;100961.18;1741490;81;28318;-84
2023/01/02 07:58:29;;;;;;;16.35;9.40;;;;;;;10.06;83.04;100969.19;1741428;81;25827;-85
2023/01/02 08:00:56;;;;;;;12.35;9.00;;;;;;;10.08;83.06;100976.04;1730461;81;25765;-84
2023/01/02 08:03:23;;;;;;;17.70;8.85;;;;;;;10.13;83.10;100972.03;1739071;81;25331;-85
2023/01/02 08:05:50;;;;;;;16.27;10.20;;;;;;;10.13;83.10;100961.33;1740792;81;25776;-85
2023/01/02 08:08:16;;;;;;;13.60;8.58;;;;;;;10.16;83.21;100959.65;1741149;81;27439;-85
2023/01/02 08:10:42;;;;;;;18.60;9.50;;;;;;;10.18;83.23;100960.31;1736341;81;25810;-83
2023/01/02 08:13:09;;;;;;;13.83;8.20;;;;;;;10.20;83.28;100956.42;1735818;80;25836;-85
2023/01/02 08:15:35;;;;;;;16.27;9.15;;;;;;;10.24;83.31;100959.10;1744772;81;26233;-82
2023/01/02 08:18:01;;;;;;;13.88;8.40;;;;;;;10.26;83.29;100956.23;1743486;81;26022;-82
2023/01/02 08:20:28;;;;;;;14.73;8.58;;;;;;;10.26;83.29;100962.44;1751389;81;27712;-84
2023/01/02 08:22:56;;;;;;;14.60;8.83;;;;;;;10.26;83.36;100954.41;1730496;81;25906;-83
2023/01/02 08:25:22;;;;;;;14.75;8.30;;;;;;;10.26;83.36;100955.74;1745650;81;26718;-82
2023/01/02 08:27:48;;;;;;;14.43;8.33;;;;;;;10.29;83.41;100953.19;1749334;80;26012;-85
2023/01/02 08:30:15;;;;;;;13.38;7.87;;;;;;;10.29;83.48;100947.34;1748801;80;25705;-85
2023/01/02 08:32:42;;;;;;;15.20;9.25;;;;;;;10.30;83.50;100939.65;1739842;81;27431;-85
2023/01/02 08:35:09;;;;;;;14.83;8.60;;;;;;;10.32;83.49;100939.47;1750407;81;26502;-85
2023/01/02 08:37:36;;;;;;;13.88;8.55;;;;;;;10.33;83.55;100948.66;1743730;81;25840;-77
2023/01/02 08:40:05;;;;;;;14.90;8.58;;;;;;;10.37;83.57;100943.80;1741413;80;25836;-76
2023/01/02 08:42:42;;;;;;;16.52;8.73;;;;;;;10.38;83.59;100944.95;1732152;80;26450;-88
2023/01/02 08:45:11;;;;;;;17.02;8.83;;;;;;;10.40;83.55;100948.28;1747935;80;27532;-86
2023/01/02 08:47:37;;;;;;;11.73;8.48;;;;;;;10.42;83.57;100952.11;1756142;81;26556;-78
2023/01/02 08:50:05;;;;;;;15.98;9.18;;;;;;;10.44;83.59;100958.13;1740750;81;25757;-79
2023/01/02 08:52:32;;;;;;;16.02;8.40;;;;;;;10.47;83.80;100951.92;1738596;81;25836;-78
2023/01/02 08:55:02;;;;;;;14.00;8.80;;;;;;;10.51;83.69;100951.05;1739219;80;26510;-78
2023/01/02 08:57:27;;;;;;;14.70;9.05;;;;;;;10.54;83.72;100950.71;1751097;80;27449;-83
2023/01/02 08:59:53;;;;;;;12.20;8.60;;;;;;;10.56;83.72;100954.05;1745559;80;26477;-81
2023/01/02 09:02:19;;;;;;;14.75;8.68;;;;;;;10.60;83.69;100959.37;1744697;80;25956;-78
2023/01/02 09:04:46;;;;;;;14.95;8.35;;;;;;;10.63;83.79;100960.34;1740228;80;25814;-78
2023/01/02 09:07:12;;;;;;;18.80;9.90;;;;;;;10.66;83.71;100955.48;1737757;80;25776;-80
2023/01/02 09:09:39;;;;;;;16.23;9.98;;;;;;;10.68;83.68;100960.15;1743782;80;27434;-78
2023/01/02 09:12:05;;;;;;;15.45;9.23;;;;;;;10.71;83.66;100954.95;1747699;80;25868;-79
2023/01/02 09:14:32;;;;;;;17.60;9.98;;;;;;;10.72;83.70;100951.23;1738372;80;25903;-79
2023/01/02 09:16:58;;;;;;;19.35;9.58;;;;;;;10.75;83.75;100953.57;1745276;80;26674;-78
2023/01/02 09:19:26;;;;;;;17.25;8.18;;;;;;;10.76;83.83;100957.41;1736526;80;25334;-79
2023/01/02 09:21:52;;;;;;;18.75;9.35;;;;;;;10.79;83.81;100960.23;1739809;80;27901;-79
2023/01/02 09:24:19;;;;;;;17.90;9.70;;;;;;;10.81;83.83;100958.20;1749025;80;25872;-78
2023/01/02 09:26:46;;;;;;;20.10;10.15;;;;;;;10.82;83.76;100959.36;1725968;80;25912;-78
2023/01/02 09:29:14;;;;;;;26.10;10.55;;;;;;;10.86;83.78;100951.81;1763881;80;26258;-78
2023/01/02 09:31:41;;;;;;;17.55;9.55;;;;;;;10.87;83.68;100944.09;1747131;80;25882;-78
2023/01/02 09:34:07;;;;;;;17.42;10.10;;;;;;;10.90;83.70;100951.78;1747116;80;28576;-78
2023/01/02 09:36:33;;;;;;;19.60;10.30;;;;;;;10.92;83.66;100937.69;1740034;80;26536;-78
2023/01/02 09:39:01;;;;;;;15.32;9.23;;;;;;;10.94;83.79;100942.36;1739121;80;25819;-78
2023/01/02 09:41:36;;;;;;;19.07;10.03;;;;;;;10.98;83.89;100940.98;1723041;81;25579;-78
2023/01/02 09:44:22;;;;;;;14.58;9.15;;;;;;;11.03;84.12;100931.06;1740901;81;25830;-79
2023/01/02 09:47:06;;;;;;;15.05;8.80;;;;;;;11.09;84.13;100932.51;1729537;80;28466;-79
2023/01/02 09:49:43;;;;;;;15.03;9.00;;;;;;;11.14;83.96;100929.28;1734139;80;25779;-79
2023/01/02 09:52:22;;;;;;;18.73;9.35;;;;;;;11.18;84.08;100927.90;1739596;81;25778;-79
2023/01/02 09:54:48;;;;;;;14.33;8.40;;;;;;;11.24;84.15;100924.48;1736635;80;25866;-79
2023/01/02 09:57:41;;;;;;;15.85;8.40;;;;;;;11.29;84.07;100918.08;1739998;80;26144;-79
2023/01/02 10:00:24;;;;;;;13.35;8.68;;;;;;;11.33;84.11;100912.13;1741997;80;27449;-79
2023/01/02 10:03:18;;;;;;;15.72;8.30;;;;;;;11.38;84.05;100915.10;1746246;80;25801;-78
2023/01/02 10:06:23;;;;;;;14.75;8.68;;;;;;;11.42;83.91;100907.52;1732971;80;25923;-79
2023/01/02 10:09:15;;;;;;;15.08;8.58;;;;;;;11.45;83.75;100912.02;1746980;81;25999;-86
2023/01/02 10:11:56;;;;;;;15.45;8.43;;;;;;;11.49;83.68;100897.72;1747960;81;25867;-84
2023/01/02 10:14:36;;;;;;;13.93;9.08;;;;;;;11.51;83.49;100889.81;1750949;81;28308;-78
2023/01/02 10:17:06;;;;;;;18.07;9.65;;;;;;;11.54;83.55;100887.27;1735305;80;25832;-78
2023/01/02 10:20:04;;;;;;;17.60;9.25;;;;;;;11.55;83.55;100883.05;1747786;80;25725;-83
2023/01/02 10:22:38;;;;;;;15.53;8.40;;;;;;;11.58;83.57;100884.03;1745083;81;25773;-86
2023/01/02 10:25:27;;;;;;;17.73;9.28;;;;;;;11.61;83.51;100883.64;1745203;80;25826;-77
2023/01/02 10:28:02;;;;;;;14.98;9.50;;;;;;;11.64;83.55;100883.78;1730445;80;28459;-77
2023/01/02 10:30:34;;;;;;;13.78;8.50;;;;;;;11.69;83.41;100872.53;1732877;80;25936;-77
2023/01/02 10:33:27;;;;;;;17.27;9.10;;;;;;;11.72;83.29;100884.24;1740200;81;25854;-81
2023/01/02 10:36:15;;;;;;;;;;;;;;;;;;;;;
2023/01/02 10:41:15;;;;;;;17.85;8.98;;;;;;;11.77;82.84;100856.31;1568039;88;25992;-86
2023/01/02 10:43:46;;;;;;;15.28;8.95;;;;;;;11.78;82.80;100866.05;1677065;81;26113;-84
2023/01/02 10:46:13;;;;;;;17.77;9.55;;;;;;;11.79;82.70;100865.01;1720350;81;25774;-83
2023/01/02 10:48:41;;;;;;;15.45;9.65;;;;;;;11.82;82.70;100870.01;1746768;81;26267;-80
2023/01/02 10:51:12;;;;;;;16.73;9.45;;;;;;;11.83;82.64;100874.34;1745337;81;25847;-80
2023/01/02 10:53:39;;;;;;;20.95;10.78;;;;;;;11.85;82.41;100877.67;1773063;79;27433;-78
2023/01/02 10:56:18;;;;;;;22.35;10.70;;;;;;;11.86;82.36;100880.69;1784146;77;25829;-79
2023/01/02 10:58:48;;;;;;;14.90;8.38;;;;;;;11.88;82.38;100868.75;1744462;81;26518;-79
2023/01/02 11:01:18;;;;;;;18.33;9.23;;;;;;;11.89;82.25;100856.98;1730933;81;26628;-79
2023/01/02 11:03:57;;;;;;;16.65;8.93;;;;;;;11.92;82.24;100857.95;1708044;81;25948;-80
2023/01/02 11:06:30;;;;;;;13.22;8.33;;;;;;;11.94;82.20;100853.73;1741792;81;28736;-80
2023/01/02 11:09:19;;;;;;;15.90;9.03;;;;;;;11.95;82.23;100852.22;1745169;80;26326;-79
2023/01/02 11:12:09;;;;;;;13.43;9.28;;;;;;;11.97;82.24;100845.31;1740592;81;25845;-81
2023/01/02 11:14:37;;;;;;;15.98;9.30;;;;;;;11.99;82.16;100851.32;1731194;80;26475;-78
2023/01/02 11:17:13;;;;;;;14.73;8.50;;;;;;;12.00;82.01;100845.75;1741409;81;25877;-81
2023/01/02 11:19:44;;;;;;;15.70;8.48;;;;;;;12.00;81.85;100840.88;1785576;78;27431;-79
2023/01/02 11:22:14;;;;;;;13.22;8.10;;;;;;;12.01;81.88;100829.14;1790411;77;25889;-80
2023/01/02 11:24:58;;;;;;;11.97;8.43;;;;;;;12.01;81.75;100829.98;1776532;78;25872;-79
2023/01/02 11:27:39;;;;;;;11.45;7.42;;;;;;;12.01;81.68;100811.69;1788463;79;25742;-79
2023/01/02 11:30:08;;;;;;;12.37;8.13;;;;;;;12.01;81.70;100811.69;1784701;80;25907;-80
2023/01/02 11:32:40;;;;;;;14.87;8.60;;;;;;;12.01;81.85;100819.23;1788383;77;27446;-79
2023/01/02 11:35:30;;;;;;;16.27;9.33;;;;;;;12.04;81.90;100826.09;1787237;78;25793;-79
2023/01/02 11:37:56;;;;;;;14.55;8.58;;;;;;;12.07;81.93;100821.16;1796381;78;25826;-78
2023/01/02 11:40:30;;;;;;;14.20;8.55;;;;;;;12.09;81.82;100819.11;1795931;78;26359;-80
2023/01/02 11:45:48;;;;;;;16.02;9.55;;;;;;;12.17;81.77;100831.56;1784003;78;27703;-79
2023/01/02 11:48:20;;;;;;;12.60;8.18;;;;;;;12.17;81.65;100827.03;1791132;78;25733;-79
2023/01/02 11:50:49;;;;;;;18.42;10.05;;;;;;;12.18;81.52;100819.31;1715419;81;25869;-79
2023/01/02 11:53:29;;;;;;;14.90;9.15;;;;;;;12.22;81.56;100823.78;1735963;80;25538;-79
2023/01/02 11:56:09;;;;;;;15.95;8.95;;;;;;;12.23;81.37;100818.20;1749822;80;26189;-79
2023/01/02 11:59:03;;;;;;;17.45;8.88;;;;;;;12.26;81.35;100818.34;1756719;80;28325;-79
2023/01/02 12:01:55;;;;;;;17.17;9.48;;;;;;;12.27;81.41;100820.82;1729559;81;25941;-77
2023/01/02 12:04:22;;;;;;;17.80;10.05;;;;;;;12.27;81.54;100820.82;1734204;80;25906;-78
2023/01/02 12:07:00;;;;;;;18.52;8.98;;;;;;;12.29;81.56;100808.56;1745288;80;25991;-78
2023/01/02 12:09:40;;;;;;;13.80;8.80;;;;;;;12.30;81.63;100796.27;1731681;80;25809;-78
2023/01/02 12:12:31;;;;;;;14.55;8.90;;;;;;;12.32;81.72;100790.20;1735380;81;27448;-78
2023/01/02 12:15:47;;;;;;;16.97;9.30;;;;;;;12.34;81.74;100787.30;1742898;80;25870;-86
2023/01/02 12:18:27;;;;;;;16.27;7.87;;;;;;;12.37;81.89;100786.94;1656781;84;26027;-77
2023/01/02 12:21:08;;;;;;;13.55;8.30;;;;;;;12.38;81.77;100790.76;1653888;84;26125;-78
2023/01/02 12:24:00;;;;;;;12.82;8.93;;;;;;;12.39;81.68;100788.41;1698962;81;26466;-85
2023/01/02 12:26:48;;;;;;;15.55;8.45;;;;;;;12.43;81.53;100790.69;1739449;81;28277;-85
2023/01/02 12:29:41;;;;;;;12.07;8.50;;;;;;;12.44;81.45;100795.05;1734348;81;26135;-85
2023/01/02 12:32:28;;;;;;;14.83;9.28;;;;;;;12.47;81.49;100789.30;1737651;80;25822;-84
2023/01/02 12:35:32;;;;;;;16.40;9.03;;;;;;;12.51;81.47;100782.52;1738371;81;25777;-84
2023/01/02 12:38:05;;;;;;;12.60;8.35;;;;;;;12.55;81.51;100784.62;1732952;81;26768;-80